createdAt,value
2019-06-08T00:01:22.823Z,1.00
2019-06-08T00:03:52.383Z,1.00
2019-06-08T00:06:23.058Z,1.40
2019-06-08T00:08:52.736Z,1.30
2019-06-08T00:11:23.402Z,1.20
2019-06-08T00:13:53.124Z,1.20
2019-06-08T00:16:23.836Z,1.20
2019-06-08T00:18:53.339Z,1.30
2019-06-08T00:21:24.128Z,1.20
2019-06-08T00:23:53.744Z,1.30
2019-06-08T00:26:24.244Z,1.20
2019-06-08T00:28:53.896Z,1.30
2019-06-08T00:31:23.446Z,1.27
2019-06-08T00:33:53.178Z,1.20
2019-06-08T00:36:22.985Z,1.47
2019-06-08T00:38:52.539Z,1.20
2019-06-08T00:41:23.714Z,1.20
2019-06-08T00:43:53.871Z,1.10
2019-06-08T00:46:24.000Z,1.37
2019-06-08T00:48:53.699Z,1.30
2019-06-08T00:51:23.215Z,1.33
2019-06-08T00:53:52.597Z,1.23
2019-06-08T00:56:22.204Z,1.20
2019-06-08T00:58:51.753Z,1.50
2019-06-08T01:01:24.279Z,1.23
2019-06-08T01:03:52.628Z,1.20
2019-06-08T01:06:22.984Z,1.20
2019-06-08T01:08:52.737Z,1.30
2019-06-08T01:11:22.562Z,1.33
2019-06-08T01:13:52.459Z,1.30
2019-06-08T01:16:22.866Z,1.10
2019-06-08T01:18:54.120Z,1.40
2019-06-08T01:21:23.558Z,1.50
2019-06-08T01:23:53.461Z,1.37
2019-06-08T01:26:23.954Z,1.70
2019-06-08T01:28:54.024Z,1.30
2019-06-08T01:31:24.414Z,1.37
2019-06-08T01:33:54.768Z,1.40
2019-06-08T01:36:24.753Z,1.60
2019-06-08T01:38:54.838Z,1.10
2019-06-08T01:41:25.455Z,1.20
2019-06-08T01:43:54.971Z,1.17
2019-06-08T01:46:24.399Z,1.50
2019-06-08T01:48:53.970Z,1.20
2019-06-08T01:51:24.560Z,1.30
2019-06-08T01:53:54.033Z,1.23
2019-06-08T01:56:23.414Z,1.47
2019-06-08T01:58:53.085Z,1.63
2019-06-08T02:01:25.440Z,1.40
2019-06-08T02:03:55.128Z,1.53
2019-06-08T02:06:24.490Z,1.33
2019-06-08T02:08:54.038Z,1.20
2019-06-08T02:11:24.522Z,1.23
2019-06-08T02:13:54.066Z,1.30
2019-06-08T02:16:25.619Z,1.20
2019-06-08T02:18:55.129Z,1.30
2019-06-08T02:21:24.502Z,1.30
2019-06-08T02:23:54.181Z,1.43
2019-06-08T02:26:26.862Z,1.40
2019-06-08T02:28:55.189Z,1.60
2019-06-08T02:31:24.868Z,1.20
2019-06-08T02:33:54.382Z,1.23
2019-06-08T02:36:23.748Z,1.30
2019-06-08T02:38:53.612Z,1.50
2019-06-08T02:41:24.732Z,1.20
2019-06-08T02:43:54.403Z,1.33
2019-06-08T02:46:23.808Z,1.07
2019-06-08T02:49:03.296Z,1.60
2019-06-08T02:51:25.079Z,1.37
2019-06-08T02:53:57.216Z,1.67
2019-06-08T02:56:29.894Z,1.10
2019-06-08T02:59:00.894Z,1.20
2019-06-08T03:01:35.748Z,1.10
2019-06-08T03:04:06.202Z,1.70
2019-06-08T03:06:39.394Z,1.30
2019-06-08T03:09:11.071Z,1.20
2019-06-08T03:11:42.108Z,1.50
2019-06-08T03:14:11.511Z,1.10
2019-06-08T03:16:43.186Z,1.57
2019-06-08T03:19:21.635Z,1.00
2019-06-08T03:21:43.538Z,1.43
2019-06-08T03:24:12.876Z,1.37
2019-06-08T03:26:44.119Z,1.40
2019-06-08T03:29:13.759Z,1.10
2019-06-08T03:31:51.134Z,1.30
2019-06-08T03:34:14.456Z,1.40
2019-06-08T03:36:54.852Z,1.27
2019-06-08T03:39:15.353Z,1.40
2019-06-08T03:41:45.294Z,1.43
2019-06-08T03:44:16.650Z,1.30
2019-06-08T03:46:47.875Z,1.40
2019-06-08T03:49:17.332Z,1.20
2019-06-08T03:51:48.836Z,1.60
2019-06-08T03:54:18.017Z,1.57
2019-06-08T03:56:47.623Z,1.17
2019-06-08T03:59:16.911Z,1.40
2019-06-08T04:01:46.383Z,1.40
2019-06-08T04:04:15.893Z,1.30
2019-06-08T04:06:45.697Z,1.27
2019-06-08T04:09:15.435Z,1.40
2019-06-08T04:11:46.592Z,1.40
2019-06-08T04:14:16.264Z,1.27
2019-06-08T04:16:46.849Z,1.40
2019-06-08T04:19:16.561Z,1.40
2019-06-08T04:21:46.411Z,1.23
2019-06-08T04:24:15.936Z,1.27
2019-06-08T04:26:46.997Z,1.40
2019-06-08T04:29:16.363Z,1.40
2019-06-08T04:31:46.127Z,1.60
2019-06-08T04:34:15.728Z,1.40
2019-06-08T04:36:46.296Z,1.57
2019-06-08T04:39:16.350Z,1.67
2019-06-08T04:41:47.188Z,1.47
2019-06-08T04:44:16.747Z,1.80
2019-06-08T04:46:47.857Z,1.80
2019-06-08T04:49:17.489Z,1.70
2019-06-08T04:51:47.727Z,1.77
2019-06-08T04:54:18.198Z,1.37
2019-06-08T04:56:49.527Z,1.33
2019-06-08T04:59:19.298Z,1.80
2019-06-08T05:01:49.286Z,1.60
2019-06-08T05:04:18.959Z,1.60
2019-06-08T05:06:49.571Z,1.40
2019-06-08T05:09:20.692Z,1.37
2019-06-08T05:11:50.338Z,1.43
2019-06-08T05:14:19.700Z,1.70
2019-06-08T05:16:49.782Z,1.80
2019-06-08T05:19:19.598Z,1.80
2019-06-08T05:21:49.841Z,1.40
2019-06-08T05:24:19.591Z,1.50
2019-06-08T05:26:49.636Z,1.70
2019-06-08T05:29:19.869Z,1.70
2019-06-08T05:31:49.800Z,1.60
2019-06-08T05:34:19.521Z,2.27
2019-06-08T05:36:50.174Z,1.50
2019-06-08T05:39:19.665Z,1.93
2019-06-08T05:41:49.873Z,1.77
2019-06-08T05:44:19.373Z,1.77
2019-06-08T05:46:49.996Z,1.77
2019-06-08T05:49:21.941Z,1.97
2019-06-08T05:51:51.299Z,1.80
2019-06-08T05:54:20.754Z,2.03
2019-06-08T05:56:50.511Z,1.80
2019-06-08T05:59:20.067Z,1.70
2019-06-08T06:01:50.874Z,1.50
2019-06-08T06:04:20.615Z,1.97
2019-06-08T06:06:51.863Z,1.77
2019-06-08T06:09:21.322Z,1.60
2019-06-08T06:11:51.186Z,1.60
2019-06-08T06:14:21.035Z,1.80
2019-06-08T06:16:51.328Z,1.50
2019-06-08T06:19:21.235Z,1.97
2019-06-08T06:21:51.577Z,1.57
2019-06-08T06:24:20.983Z,1.33
2019-06-08T06:26:51.536Z,1.67
2019-06-08T06:29:21.379Z,2.40
2019-06-08T06:31:52.127Z,2.03
2019-06-08T06:34:21.644Z,1.70
2019-06-08T06:36:52.149Z,1.47
2019-06-08T06:39:21.670Z,1.90
2019-06-08T06:41:52.169Z,1.70
2019-06-08T06:44:21.690Z,1.70
2019-06-08T06:46:52.428Z,1.60
2019-06-08T06:49:22.164Z,1.67
2019-06-08T06:51:52.710Z,1.70
2019-06-08T06:54:22.300Z,1.80
2019-06-08T06:56:51.968Z,1.70
2019-06-08T06:59:30.102Z,1.70
2019-06-08T07:01:59.581Z,1.70
2019-06-08T07:04:29.013Z,1.50
2019-06-08T07:06:58.515Z,2.00
2019-06-08T07:09:28.741Z,2.77
2019-06-08T07:11:58.091Z,1.70
2019-06-08T07:14:27.655Z,1.90
2019-06-08T07:16:58.289Z,2.00
2019-06-08T07:19:28.142Z,1.70
2019-06-08T07:21:58.537Z,1.70
2019-06-08T07:24:28.537Z,2.00
2019-06-08T07:26:58.787Z,2.07
2019-06-08T07:29:28.483Z,2.13
2019-06-08T07:31:59.349Z,1.67
2019-06-08T07:34:29.038Z,1.60
2019-06-08T07:36:59.584Z,2.17
2019-06-08T07:39:29.340Z,2.07
2019-06-08T07:41:59.944Z,1.77
2019-06-08T07:44:29.820Z,2.07
2019-06-08T07:47:00.132Z,1.73
2019-06-08T07:49:29.723Z,1.80
2019-06-08T07:52:09.732Z,2.23
2019-06-08T07:54:30.623Z,2.20
2019-06-08T07:57:00.855Z,1.87
2019-06-08T07:59:30.806Z,1.97
2019-06-08T08:02:00.478Z,1.87
2019-06-08T08:04:30.044Z,2.10
2019-06-08T08:06:59.593Z,2.17
2019-06-08T08:09:29.600Z,2.13
2019-06-08T08:11:59.870Z,2.03
2019-06-08T08:14:29.529Z,1.80
2019-06-08T08:16:59.160Z,1.83
2019-06-08T08:19:29.196Z,1.73
2019-06-08T08:22:02.357Z,2.07
2019-06-08T08:24:30.230Z,1.83
2019-06-08T08:27:03.297Z,2.00
2019-06-08T08:29:31.438Z,1.60
2019-06-08T08:32:02.055Z,1.87
2019-06-08T08:34:32.391Z,1.93
2019-06-08T08:37:05.986Z,2.00
2019-06-08T08:39:33.240Z,1.97
2019-06-08T08:42:05.110Z,2.00
2019-06-08T08:44:34.207Z,1.90
2019-06-08T08:47:03.840Z,1.53
2019-06-08T08:49:34.084Z,2.30
2019-06-08T08:52:03.648Z,1.73
2019-06-08T08:54:33.513Z,2.00
2019-06-08T08:57:05.197Z,1.70
2019-06-08T08:59:34.956Z,1.80
2019-06-08T09:02:04.693Z,1.87
2019-06-08T09:04:37.848Z,2.00
2019-06-08T09:07:09.969Z,1.90
2019-06-08T09:09:38.820Z,1.73
2019-06-08T09:12:08.717Z,1.60
2019-06-08T09:14:41.305Z,2.23
2019-06-08T09:17:09.935Z,1.90
2019-06-08T09:19:39.847Z,2.10
2019-06-08T09:22:09.851Z,2.00
2019-06-08T09:24:39.569Z,2.33
2019-06-08T09:27:09.507Z,2.07
2019-06-08T09:29:39.082Z,1.97
2019-06-08T09:32:08.923Z,1.73
2019-06-08T09:34:40.456Z,2.17
2019-06-08T09:37:10.543Z,2.20
2019-06-08T09:39:40.393Z,1.93
2019-06-08T09:42:10.621Z,2.23
2019-06-08T09:44:40.424Z,2.20
2019-06-08T09:47:12.600Z,2.20
2019-06-08T09:49:41.143Z,1.67
2019-06-08T09:52:11.038Z,1.90
2019-06-08T09:54:40.806Z,2.23
2019-06-08T09:57:10.716Z,1.70
2019-06-08T09:59:40.467Z,2.30
2019-06-08T10:02:12.980Z,1.90
2019-06-08T10:04:41.503Z,1.90
2019-06-08T10:07:11.665Z,2.20
2019-06-08T10:09:43.320Z,1.90
2019-06-08T10:12:13.295Z,2.07
2019-06-08T10:14:43.162Z,2.17
2019-06-08T10:17:13.045Z,1.80
2019-06-08T10:19:42.482Z,2.37
2019-06-08T10:22:12.658Z,2.10
2019-06-08T10:24:42.140Z,1.83
2019-06-08T10:27:12.160Z,1.80
2019-06-08T10:29:41.946Z,2.20
2019-06-08T10:32:13.529Z,2.30
2019-06-08T10:34:43.164Z,2.00
2019-06-08T10:37:13.565Z,2.13
2019-06-08T10:39:43.335Z,2.23
2019-06-08T10:42:12.998Z,2.00
2019-06-08T10:44:43.346Z,2.20
2019-06-08T10:47:13.252Z,2.40
2019-06-08T10:49:42.683Z,2.20
2019-06-08T10:52:12.550Z,2.20
2019-06-08T10:54:42.102Z,2.10
2019-06-08T10:57:11.846Z,2.43
2019-06-08T10:59:41.409Z,2.13
2019-06-08T11:02:13.842Z,2.50
2019-06-08T11:04:43.356Z,1.90
2019-06-08T11:07:16.330Z,1.90
2019-06-08T11:09:48.237Z,2.53
2019-06-08T11:12:18.340Z,1.87
2019-06-08T11:14:48.223Z,1.93
2019-06-08T11:17:18.017Z,2.07
2019-06-08T11:19:48.102Z,2.13
2019-06-08T11:22:18.202Z,2.17
2019-06-08T11:24:48.615Z,2.10
2019-06-08T11:27:18.889Z,2.00
2019-06-08T11:29:48.501Z,2.03
2019-06-08T11:32:19.868Z,2.13
2019-06-08T11:34:49.696Z,2.13
2019-06-08T11:37:21.091Z,2.10
2019-06-08T11:39:50.781Z,2.47
2019-06-08T11:42:20.494Z,2.27
2019-06-08T11:44:51.262Z,2.07
2019-06-08T11:47:21.459Z,2.47
2019-06-08T11:49:51.122Z,2.00
2019-06-08T11:52:20.663Z,2.23
2019-06-08T11:54:50.291Z,2.13
2019-06-08T11:57:20.037Z,2.20
2019-06-08T11:59:52.658Z,2.30
2019-06-08T12:02:22.425Z,2.03
2019-06-08T12:04:52.112Z,2.13
2019-06-08T12:07:21.760Z,2.00
2019-06-08T12:09:51.441Z,2.00
2019-06-08T12:12:21.590Z,1.70
2019-06-08T12:14:52.062Z,1.90
2019-06-08T12:17:22.583Z,2.10
2019-06-08T12:19:52.742Z,1.87
2019-06-08T12:22:22.493Z,2.27
2019-06-08T12:24:52.428Z,2.10
2019-06-08T12:27:29.842Z,2.17
2019-06-08T12:29:53.499Z,2.30
2019-06-08T12:32:23.985Z,2.10
2019-06-08T12:34:53.958Z,2.20
2019-06-08T12:37:24.028Z,1.70
2019-06-08T12:39:53.493Z,2.20
2019-06-08T12:42:25.027Z,2.13
2019-06-08T12:44:54.447Z,2.20
2019-06-08T12:47:26.665Z,2.00
2019-06-08T12:49:58.299Z,1.90
2019-06-08T12:52:29.551Z,2.43
2019-06-08T12:55:06.377Z,2.00
2019-06-08T12:57:30.568Z,2.43
2019-06-08T13:00:00.627Z,2.03
2019-06-08T13:02:30.127Z,3.73
2019-06-08T13:05:00.304Z,2.10
2019-06-08T13:07:30.139Z,2.10
2019-06-08T13:09:59.696Z,2.20
2019-06-08T13:12:29.420Z,1.90
2019-06-08T13:14:59.433Z,2.23
2019-06-08T13:17:28.983Z,2.17
2019-06-08T13:19:58.922Z,2.60
2019-06-08T13:22:31.367Z,2.40
2019-06-08T13:25:15.215Z,2.03
2019-06-08T13:27:31.186Z,2.10
2019-06-08T13:30:01.131Z,2.07
2019-06-08T13:32:30.662Z,1.83
2019-06-08T13:35:00.371Z,2.00
2019-06-08T13:37:29.954Z,1.77
2019-06-08T13:39:59.886Z,2.00
2019-06-08T13:42:29.406Z,2.23
2019-06-08T13:45:01.218Z,2.10
2019-06-08T13:47:30.922Z,2.20
2019-06-08T13:50:00.799Z,2.10
2019-06-08T13:52:30.384Z,1.90
2019-06-08T13:55:00.052Z,2.00
2019-06-08T13:57:30.056Z,2.17
2019-06-08T13:59:59.812Z,1.80
2019-06-08T14:02:31.685Z,1.90
2019-06-08T14:05:00.882Z,1.80
2019-06-08T14:07:34.397Z,2.30
2019-06-08T14:10:03.275Z,1.80
2019-06-08T14:12:33.313Z,2.27
2019-06-08T14:15:03.278Z,1.97
2019-06-08T14:17:32.831Z,1.90
2019-06-08T14:20:02.836Z,1.93
2019-06-08T14:22:32.512Z,1.80
2019-06-08T14:25:02.693Z,1.97
2019-06-08T14:27:33.554Z,1.80
2019-06-08T14:30:03.399Z,2.07
2019-06-08T14:32:33.755Z,1.77
2019-06-08T14:35:03.410Z,1.80
2019-06-08T14:37:33.109Z,2.10
2019-06-08T14:40:03.779Z,1.63
2019-06-08T14:42:33.401Z,1.60
2019-06-08T14:45:12.457Z,1.70
2019-06-08T14:47:42.409Z,1.60
2019-06-08T14:50:12.688Z,1.80
2019-06-08T14:52:42.546Z,1.80
2019-06-08T14:55:12.291Z,1.80
2019-06-08T14:57:41.872Z,1.90
2019-06-08T15:00:12.496Z,1.77
2019-06-08T15:02:42.487Z,1.70
2019-06-08T15:05:12.664Z,1.67
2019-06-08T15:07:42.877Z,1.70
2019-06-08T15:10:13.178Z,1.70
2019-06-08T15:12:43.086Z,1.80
2019-06-08T15:15:13.382Z,1.90
2019-06-08T15:17:42.951Z,1.80
2019-06-08T15:20:12.981Z,1.90
2019-06-08T15:22:42.700Z,1.40
2019-06-08T15:25:12.336Z,1.90
2019-06-08T15:27:41.862Z,1.87
2019-06-08T15:30:14.637Z,2.00
2019-06-08T15:32:44.278Z,1.77
2019-06-08T15:35:13.693Z,2.30
2019-06-08T15:37:43.130Z,1.60
2019-06-08T15:40:12.995Z,2.00
2019-06-08T15:42:42.460Z,1.90
2019-06-08T15:45:12.038Z,1.60
2019-06-08T15:47:41.587Z,1.97
2019-06-08T15:50:11.382Z,2.00
2019-06-08T15:52:40.983Z,1.80
2019-06-08T15:55:11.323Z,2.13
2019-06-08T15:57:41.516Z,2.17
2019-06-08T16:00:11.152Z,1.90
2019-06-08T16:02:40.872Z,2.00
2019-06-08T16:05:10.489Z,1.97
2019-06-08T16:07:40.088Z,1.97
2019-06-08T16:10:10.192Z,1.73
2019-06-08T16:12:39.718Z,1.70
2019-06-08T16:15:09.726Z,1.70
2019-06-08T16:17:39.174Z,1.63
2019-06-08T16:20:08.932Z,2.00
2019-06-08T16:22:38.547Z,1.50
2019-06-08T16:25:08.319Z,1.70
2019-06-08T16:27:37.759Z,1.57
2019-06-08T16:30:09.433Z,1.63
2019-06-08T16:32:39.820Z,1.93
2019-06-08T16:35:09.845Z,1.67
2019-06-08T16:37:39.968Z,1.50
2019-06-08T16:40:09.653Z,1.93
2019-06-08T16:42:39.253Z,1.80
2019-06-08T16:45:08.869Z,1.80
2019-06-08T16:47:39.678Z,1.90
2019-06-08T16:50:23.272Z,2.83
2019-06-08T16:52:41.346Z,7.93
2019-06-08T16:55:11.424Z,3.60
2019-06-08T16:57:41.442Z,1.60
2019-06-08T17:00:30.788Z,1.70
2019-06-08T17:02:42.936Z,2.43
2019-06-08T17:05:12.841Z,1.50
2019-06-08T17:07:42.317Z,1.40
2019-06-08T17:10:11.994Z,1.60
2019-06-08T17:12:41.815Z,1.90
2019-06-08T17:15:11.537Z,2.30
2019-06-08T17:17:41.030Z,1.60
2019-06-08T17:20:10.992Z,1.40
2019-06-08T17:22:40.925Z,2.17
2019-06-08T17:25:10.971Z,1.50
2019-06-08T17:27:40.904Z,1.40
2019-06-08T17:30:11.037Z,1.90
2019-06-08T17:32:41.121Z,1.57
2019-06-08T17:35:11.890Z,1.20
2019-06-08T17:37:42.062Z,1.90
2019-06-08T17:40:12.234Z,2.23
2019-06-08T17:42:41.856Z,1.90
2019-06-08T17:45:11.650Z,6.17
2019-06-08T17:47:42.771Z,3.77
2019-06-08T17:50:13.396Z,2.03
2019-06-08T17:52:43.093Z,2.47
2019-06-08T17:55:13.257Z,2.30
2019-06-08T17:57:52.802Z,3.00
2019-06-08T18:00:15.058Z,2.30
2019-06-08T18:02:45.389Z,1.80
2019-06-08T18:05:17.753Z,1.83
2019-06-08T18:07:49.017Z,1.70
2019-06-08T18:10:18.203Z,1.63
2019-06-08T18:12:49.257Z,1.60
2019-06-08T18:15:19.503Z,1.40
2019-06-08T18:17:49.350Z,1.83
2019-06-08T18:20:19.107Z,1.67
2019-06-08T18:22:49.881Z,2.00
2019-06-08T18:25:19.562Z,1.70
2019-06-08T18:28:04.933Z,1.70
2019-06-08T18:30:24.015Z,1.37
2019-06-08T18:32:53.978Z,1.57
2019-06-08T18:35:27.617Z,1.50
2019-06-08T18:37:57.952Z,1.80
2019-06-08T18:40:28.825Z,1.37
2019-06-08T18:43:00.413Z,1.30
2019-06-08T18:45:31.771Z,1.30
2019-06-08T18:48:01.726Z,1.37
2019-06-08T18:50:31.577Z,1.30
2019-06-08T18:53:02.202Z,1.30
2019-06-08T18:55:32.861Z,1.47
2019-06-08T18:58:16.408Z,1.40
2019-06-08T19:00:41.386Z,1.70
2019-06-08T19:03:09.899Z,1.67
2019-06-08T19:05:43.561Z,1.57
2019-06-08T19:08:12.289Z,1.70
2019-06-08T19:10:42.740Z,1.60
2019-06-08T19:13:14.587Z,1.70
2019-06-08T19:15:47.434Z,1.67
2019-06-08T19:18:17.734Z,1.80
2019-06-08T19:20:48.954Z,1.83
2019-06-08T19:23:21.306Z,2.30
2019-06-08T19:25:50.723Z,2.00
2019-06-08T19:28:35.238Z,2.07
2019-06-08T19:30:52.011Z,2.17
2019-06-08T19:33:21.762Z,2.00
2019-06-08T19:35:53.614Z,2.40
2019-06-08T19:38:22.529Z,2.20
2019-06-08T19:40:52.268Z,2.17
2019-06-08T19:43:21.722Z,2.00
2019-06-08T19:45:52.122Z,2.10
2019-06-08T19:48:21.871Z,2.73
2019-06-08T19:50:54.158Z,2.40
2019-06-08T19:53:22.785Z,2.50
2019-06-08T19:55:54.141Z,2.80
2019-06-08T19:58:23.946Z,2.77
2019-06-08T20:00:54.906Z,2.83
2019-06-08T20:03:27.390Z,2.30
2019-06-08T20:05:56.215Z,2.80
2019-06-08T20:08:28.323Z,2.30
2019-06-08T20:10:57.479Z,2.63
2019-06-08T20:13:27.187Z,2.17
2019-06-08T20:15:59.583Z,2.30
2019-06-08T20:18:28.161Z,2.50
2019-06-08T20:20:58.690Z,2.47
2019-06-08T20:23:29.053Z,2.93
2019-06-08T20:26:00.685Z,2.70
2019-06-08T20:28:29.643Z,2.50
2019-06-08T20:30:59.873Z,2.40
2019-06-08T20:33:29.523Z,2.80
2019-06-08T20:35:59.485Z,2.40
2019-06-08T20:38:37.766Z,2.70
2019-06-08T20:41:00.861Z,2.47
2019-06-08T20:43:30.686Z,2.33
2019-06-08T20:46:00.825Z,2.60
2019-06-08T20:48:30.294Z,2.57
2019-06-08T20:50:59.706Z,2.80
2019-06-08T20:53:29.407Z,2.97
2019-06-08T20:55:59.013Z,2.40
2019-06-08T20:58:28.580Z,2.60
2019-06-08T21:00:58.170Z,2.80
2019-06-08T21:03:28.144Z,2.37
2019-06-08T21:05:58.194Z,2.60
2019-06-08T21:08:28.345Z,2.83
2019-06-08T21:10:58.668Z,2.50
2019-06-08T21:13:28.246Z,2.60
2019-06-08T21:16:00.560Z,2.90
2019-06-08T21:18:29.514Z,2.60
2019-06-08T21:20:59.224Z,2.50
2019-06-08T21:23:31.970Z,2.77
2019-06-08T21:26:00.564Z,2.70
2019-06-08T21:28:30.297Z,2.80
2019-06-08T21:31:02.132Z,2.70
2019-06-08T21:33:31.753Z,2.97
2019-06-08T21:36:04.934Z,2.90
2019-06-08T21:38:32.976Z,2.83
2019-06-08T21:41:03.051Z,2.90
2019-06-08T21:43:33.002Z,2.73
2019-06-08T21:46:02.486Z,2.70
2019-06-08T21:48:32.043Z,3.10
2019-06-08T21:51:01.886Z,3.27
2019-06-08T21:53:31.505Z,2.50
2019-06-08T21:56:01.714Z,2.80
2019-06-08T21:58:31.230Z,2.50
2019-06-08T22:01:01.199Z,2.57
2019-06-08T22:03:30.885Z,3.10
2019-06-08T22:06:00.320Z,3.07
2019-06-08T22:08:30.393Z,3.30
2019-06-08T22:11:00.689Z,3.00
2019-06-08T22:13:30.518Z,2.67
2019-06-08T22:16:02.094Z,2.73
2019-06-08T22:18:31.674Z,2.77
2019-06-08T22:21:01.360Z,3.00
2019-06-08T22:23:30.948Z,2.60
2019-06-08T22:26:01.174Z,2.43
2019-06-08T22:28:30.885Z,2.70
2019-06-08T22:31:01.728Z,2.30
2019-06-08T22:33:31.548Z,2.63
2019-06-08T22:36:01.167Z,3.00
2019-06-08T22:38:30.716Z,2.60
2019-06-08T22:41:01.929Z,2.20
2019-06-08T22:43:31.938Z,2.57
2019-06-08T22:46:02.246Z,2.60
2019-06-08T22:48:32.939Z,2.57
2019-06-08T22:51:04.010Z,2.60
2019-06-08T22:53:33.764Z,2.10
2019-06-08T22:56:04.454Z,2.37
2019-06-08T22:58:34.393Z,2.30
2019-06-08T23:01:07.881Z,2.50
2019-06-08T23:03:35.706Z,2.77
2019-06-08T23:06:08.127Z,2.30
2019-06-08T23:08:37.461Z,2.27
2019-06-08T23:11:08.543Z,2.50
2019-06-08T23:13:39.049Z,2.67
2019-06-08T23:16:10.830Z,2.20
2019-06-08T23:18:41.513Z,2.47
2019-06-08T23:21:10.843Z,2.20
2019-06-08T23:23:40.403Z,2.67
2019-06-08T23:26:10.576Z,2.50
2019-06-08T23:28:40.256Z,2.33
2019-06-08T23:31:21.492Z,2.37
2019-06-08T23:33:42.363Z,2.63
2019-06-08T23:38:43.247Z,2.30
2019-06-08T23:41:12.788Z,2.60
2019-06-08T23:43:42.496Z,2.70
2019-06-08T23:46:14.170Z,2.40
2019-06-08T23:48:44.350Z,2.63
2019-06-08T23:51:14.010Z,2.50
2019-06-08T23:53:43.747Z,2.70
2019-06-08T23:56:13.112Z,2.90
2019-06-08T23:58:42.933Z,2.70
